Cartwright, Oklahoma
Current Conditions -  °F | °C
As of 12:15 AM on Sunday 23 Nov 2014 (Local Time) from KGYI Reporting Station
Clear Clear  
Wind Chill: 59°   Ceiling: Unl
Heat Index: 59°   Visibility: 10mi
Dew Point: 58°   Wind: 8mph
Humidity: 99%   Direction: 120°ESE
Pressure: 29.67"   Gusts: NA
Location:  33.85°N, 96.56°W
Report Text: KGYI 230615Z AUTO 12007KT 10SM CLR 15/15 A2967 RMK AO2 T01490147
Loading
Personal Weather Stations






























Interactive Weather Map New forecast layout! Learn more

10-Day Weather Forecast

Advertisements
Track Severe Weather on mobile